Time,TemperatureF,DewpointF,PressureIn,WindDirection,WindDirectionDegrees,WindSpeedMPH,WindSpeedGustMPH,Humidity,HourlyPrecipIn,Conditions,Clouds,dailyrainin,SoftwareType,DateUTC
2013-09-13 00:00:00,60.3,58.0,29.91,South,180,0.0,1.8,92,0.00,,,0.00,WUHU216HW,2013-09-12 23:00:00,
2013-09-13 00:05:00,60.5,58.5,29.91,South,180,0.4,1.6,93,0.00,,,0.00,WUHU216HW,2013-09-12 23:05:00,
2013-09-13 00:10:00,60.3,58.3,29.90,South,180,0.2,1.1,93,0.00,,,0.00,WUHU216HW,2013-09-12 23:10:00,
2013-09-13 00:15:00,60.5,58.5,29.90,South,180,0.2,1.1,93,0.00,,,0.00,WUHU216HW,2013-09-12 23:15:00,
2013-09-13 00:20:00,60.5,58.5,29.90,South,180,1.1,1.8,93,0.00,,,0.00,WUHU216HW,2013-09-12 23:20:00,
2013-09-13 00:25:00,60.5,58.5,29.90,SSW,203,0.4,1.8,93,0.00,,,0.00,WUHU216HW,2013-09-12 23:25:00,
2013-09-13 00:30:00,60.5,58.5,29.90,SSW,203,0.2,1.3,93,0.00,,,0.00,WUHU216HW,2013-09-12 23:30:00,
2013-09-13 00:35:00,60.5,58.5,29.90,ESE,113,0.7,1.3,93,0.00,,,0.00,WUHU216HW,2013-09-12 23:35:00,
2013-09-13 00:40:00,60.5,58.5,29.90,SSE,158,0.0,1.1,93,0.00,,,0.00,WUHU216HW,2013-09-12 23:40:00,
2013-09-13 00:45:00,60.5,58.5,29.89,South,180,0.0,1.6,93,0.00,,,0.00,WUHU216HW,2013-09-12 23:45:00,
2013-09-13 00:50:00,60.5,58.5,29.89,SE,135,0.0,2.5,93,0.00,,,0.00,WUHU216HW,2013-09-12 23:50:00,
2013-09-13 00:55:00,60.5,58.5,29.89,South,180,0.2,2.5,93,0.00,,,0.00,WUHU216HW,2013-09-12 23:55:00,
2013-09-13 01:00:00,60.5,58.5,29.89,SSW,203,1.1,1.3,93,0.00,,,0.00,WUHU216HW,2013-09-13 00:00:00,
2013-09-13 01:05:00,60.5,58.5,29.89,SSE,158,0.0,1.3,93,0.00,,,0.00,WUHU216HW,2013-09-13 00:05:00,
2013-09-13 01:10:00,60.5,58.5,29.89,SSE,158,0.2,1.1,93,0.00,,,0.00,WUHU216HW,2013-09-13 00:10:00,
2013-09-13 01:15:00,60.5,58.5,29.89,South,180,0.2,1.1,93,0.00,,,0.00,WUHU216HW,2013-09-13 00:15:00,
2013-09-13 01:20:00,60.7,58.7,29.89,South,180,0.0,1.3,93,0.00,,,0.00,WUHU216HW,2013-09-13 00:20:00,
2013-09-13 01:25:00,60.7,58.7,29.89,South,180,0.4,1.6,93,0.00,,,0.00,WUHU216HW,2013-09-13 00:25:00,
2013-09-13 01:30:00,60.7,58.7,29.89,SSW,203,0.4,2.5,93,0.00,,,0.00,WUHU216HW,2013-09-13 00:30:00,
2013-09-13 01:35:00,60.7,58.7,29.89,SSW,203,0.4,2.5,93,0.00,,,0.00,WUHU216HW,2013-09-13 00:35:00,
2013-09-13 01:40:00,60.7,58.7,29.89,South,180,0.2,1.6,93,0.00,,,0.00,WUHU216HW,2013-09-13 00:40:00,
2013-09-13 01:45:00,60.8,58.9,29.89,South,180,0.4,1.6,93,0.00,,,0.00,WUHU216HW,2013-09-13 00:45:00,
2013-09-13 01:50:00,60.8,58.9,29.89,South,180,0.0,1.6,93,0.00,,,0.00,WUHU216HW,2013-09-13 00:50:00,
2013-09-13 01:55:00,60.8,58.9,29.89,South,180,1.6,1.6,93,0.00,,,0.00,WUHU216HW,2013-09-13 00:55:00,
2013-09-13 02:00:00,60.8,58.9,29.89,SSW,203,0.4,1.6,93,0.00,,,0.00,WUHU216HW,2013-09-13 01:00:00,
2013-09-13 02:05:00,60.8,58.9,29.89,SSW,203,0.0,1.6,93,0.00,,,0.00,WUHU216HW,2013-09-13 01:05:00,
2013-09-13 02:10:00,60.8,58.9,29.89,SSW,203,0.0,0.7,93,0.00,,,0.00,WUHU216HW,2013-09-13 01:10:00,
2013-09-13 02:15:00,60.8,58.9,29.89,SSW,203,0.4,0.7,93,0.00,,,0.00,WUHU216HW,2013-09-13 01:15:00,
2013-09-13 02:20:00,60.8,58.9,29.89,SSW,203,0.7,1.1,93,0.00,,,0.00,WUHU216HW,2013-09-13 01:20:00,
2013-09-13 02:25:00,60.8,58.9,29.89,SSW,203,0.0,1.1,93,0.00,,,0.00,WUHU216HW,2013-09-13 01:25:00,
2013-09-13 02:30:00,60.8,58.9,29.89,SSW,203,0.0,0.7,93,0.00,,,0.00,WUHU216HW,2013-09-13 01:30:00,
2013-09-13 02:35:00,61.0,59.1,29.88,SSW,203,0.2,1.1,93,0.00,,,0.00,WUHU216HW,2013-09-13 01:35:00,
2013-09-13 02:40:00,61.0,59.1,29.88,SW,225,0.2,1.1,93,0.00,,,0.00,WUHU216HW,2013-09-13 01:40:00,
2013-09-13 02:45:00,61.0,59.1,29.88,SW,225,0.0,0.7,93,0.00,,,0.00,WUHU216HW,2013-09-13 01:45:00,
2013-09-13 02:50:00,61.0,59.1,29.88,SSE,158,0.0,1.6,93,0.00,,,0.00,WUHU216HW,2013-09-13 01:50:00,
2013-09-13 02:55:00,61.2,59.2,29.88,SSE,158,0.0,1.6,93,0.00,,,0.00,WUHU216HW,2013-09-13 01:55:00,
2013-09-13 03:00:00,61.2,59.2,29.88,SSW,203,0.2,0.9,93,0.00,,,0.00,WUHU216HW,2013-09-13 02:00:00,
2013-09-13 03:05:00,61.4,59.4,29.88,SW,225,0.2,1.1,93,0.00,,,0.00,WUHU216HW,2013-09-13 02:05:00,
2013-09-13 03:10:00,61.4,59.4,29.88,SW,225,0.0,1.1,93,0.00,,,0.00,WUHU216HW,2013-09-13 02:10:00,
2013-09-13 03:15:00,61.4,59.4,29.88,SSW,203,0.4,0.7,93,0.00,,,0.00,WUHU216HW,2013-09-13 02:15:00,
2013-09-13 03:20:00,61.6,59.9,29.88,SSW,203,0.9,1.1,94,0.00,,,0.00,WUHU216HW,2013-09-13 02:20:00,
2013-09-13 03:25:00,61.6,59.9,29.88,South,180,0.4,1.1,94,0.00,,,0.00,WUHU216HW,2013-09-13 02:25:00,
2013-09-13 03:30:00,61.6,59.9,29.88,South,180,0.0,1.1,94,0.00,,,0.00,WUHU216HW,2013-09-13 02:30:00,
2013-09-13 03:35:00,61.6,59.9,29.88,South,180,0.2,0.4,94,0.00,,,0.00,WUHU216HW,2013-09-13 02:35:00,
2013-09-13 03:40:00,61.6,59.9,29.88,South,180,0.2,1.1,94,0.00,,,0.00,WUHU216HW,2013-09-13 02:40:00,
2013-09-13 03:45:00,61.6,59.9,29.88,South,180,0.0,1.1,94,0.00,,,0.00,WUHU216HW,2013-09-13 02:45:00,
2013-09-13 03:50:00,61.6,59.9,29.88,South,180,0.0,0.7,94,0.00,,,0.00,WUHU216HW,2013-09-13 02:50:00,
2013-09-13 03:55:00,61.6,59.9,29.87,South,180,0.4,0.4,94,0.00,,,0.00,WUHU216HW,2013-09-13 02:55:00,
2013-09-13 04:00:00,61.6,59.9,29.87,SSW,203,0.2,0.7,94,0.00,,,0.00,WUHU216HW,2013-09-13 03:00:00,
2013-09-13 04:05:00,61.6,59.9,29.87,SSW,203,0.0,0.7,94,0.00,,,0.00,WUHU216HW,2013-09-13 03:05:00,
2013-09-13 04:10:00,61.4,59.7,29.87,SSW,203,0.2,0.4,94,0.00,,,0.00,WUHU216HW,2013-09-13 03:10:00,
2013-09-13 04:14:00,61.4,59.7,29.87,SSW,203,0.0,0.4,94,0.00,,,0.00,WUHU216HW,2013-09-13 03:14:00,
2013-09-13 04:19:00,61.4,59.7,29.87,SSW,203,0.0,0.4,94,0.00,,,0.00,WUHU216HW,2013-09-13 03:19:00,
2013-09-13 04:24:00,61.4,59.7,29.87,SSW,203,0.0,0.4,94,0.00,,,0.00,WUHU216HW,2013-09-13 03:24:00,
2013-09-13 04:29:00,61.4,59.7,29.87,SSW,203,0.0,0.4,94,0.00,,,0.00,WUHU216HW,2013-09-13 03:29:00,
2013-09-13 04:34:00,61.2,59.5,29.87,SSW,203,0.0,0.4,94,0.00,,,0.00,WUHU216HW,2013-09-13 03:34:00,
2013-09-13 04:39:00,61.2,59.5,29.87,SSW,203,0.0,0.2,94,0.00,,,0.00,WUHU216HW,2013-09-13 03:39:00,
2013-09-13 04:44:00,61.2,59.5,29.87,SSW,203,0.0,0.0,94,0.00,,,0.00,WUHU216HW,2013-09-13 03:44:00,
2013-09-13 04:49:00,61.0,59.3,29.87,SSW,203,0.0,0.0,94,0.00,,,0.00,WUHU216HW,2013-09-13 03:49:00,
2013-09-13 04:54:00,61.0,59.3,29.87,SSW,203,0.0,0.0,94,0.00,,,0.00,WUHU216HW,2013-09-13 03:54:00,
2013-09-13 04:59:00,61.0,59.3,29.87,SSW,203,0.0,0.0,94,0.00,,,0.00,WUHU216HW,2013-09-13 03:59:00,
2013-09-13 05:01:00,61.0,59.3,29.87,SSW,203,0.0,0.0,94,0.00,,,0.00,WUHU216HW,2013-09-13 04:01:00,
2013-09-13 05:02:00,61.0,59.3,29.87,SSW,203,0.0,0.0,94,0.00,,,0.00,WUHU216HW,2013-09-13 04:02:00,
2013-09-13 05:07:00,61.0,59.3,29.87,SSW,203,0.0,0.0,94,0.00,,,0.00,WUHU216HW,2013-09-13 04:07:00,
2013-09-13 05:12:00,61.0,59.3,29.87,SSW,203,0.0,0.0,94,0.00,,,0.00,WUHU216HW,2013-09-13 04:12:00,
2013-09-13 05:17:00,61.0,59.3,29.87,SSW,203,0.0,0.2,94,0.00,,,0.00,WUHU216HW,2013-09-13 04:17:00,
2013-09-13 05:22:00,61.0,59.3,29.87,SSW,203,0.0,0.2,94,0.00,,,0.00,WUHU216HW,2013-09-13 04:22:00,
2013-09-13 05:27:00,61.0,59.3,29.87,SSW,203,0.0,0.0,94,0.00,,,0.00,WUHU216HW,2013-09-13 04:27:00,
2013-09-13 05:32:00,61.2,59.5,29.87,SSW,203,0.0,0.4,94,0.00,,,0.00,WUHU216HW,2013-09-13 04:32:00,
2013-09-13 05:37:00,61.2,59.5,29.87,SSW,203,0.0,0.4,94,0.00,,,0.00,WUHU216HW,2013-09-13 04:37:00,
2013-09-13 05:42:00,61.2,59.5,29.88,SSW,203,0.0,0.0,94,0.00,,,0.00,WUHU216HW,2013-09-13 04:42:00,
2013-09-13 05:47:00,61.2,59.5,29.88,SSW,203,0.0,0.4,94,0.00,,,0.00,WUHU216HW,2013-09-13 04:47:00,
2013-09-13 05:52:00,61.2,59.5,29.88,SSW,203,0.0,0.4,94,0.00,,,0.00,WUHU216HW,2013-09-13 04:52:00,
2013-09-13 05:57:00,61.2,59.5,29.88,SSW,203,0.0,0.2,94,0.00,,,0.00,WUHU216HW,2013-09-13 04:57:00,
2013-09-13 06:02:00,61.2,59.5,29.88,SSW,203,0.0,0.2,94,0.00,,,0.00,WUHU216HW,2013-09-13 05:02:00,
2013-09-13 06:07:00,61.2,59.5,29.88,SSW,203,0.0,0.0,94,0.00,,,0.00,WUHU216HW,2013-09-13 05:07:00,
2013-09-13 06:12:00,61.4,59.7,29.88,SSW,203,0.0,0.2,94,0.00,,,0.00,WUHU216HW,2013-09-13 05:12:00,
2013-09-13 06:17:00,61.4,59.7,29.88,SSW,203,0.0,0.2,94,0.00,,,0.00,WUHU216HW,2013-09-13 05:17:00,
2013-09-13 06:22:00,61.2,59.5,29.88,SSW,203,0.0,0.4,94,0.00,,,0.00,WUHU216HW,2013-09-13 05:22:00,
2013-09-13 06:27:00,61.4,59.7,29.88,SSW,203,0.0,0.4,94,0.00,,,0.00,WUHU216HW,2013-09-13 05:27:00,
2013-09-13 06:32:00,61.4,59.7,29.88,SSW,203,0.0,0.4,94,0.00,,,0.00,WUHU216HW,2013-09-13 05:32:00,
2013-09-13 06:37:00,61.4,59.7,29.88,SSW,203,0.0,0.4,94,0.00,,,0.00,WUHU216HW,2013-09-13 05:37:00,
2013-09-13 06:42:00,61.4,59.7,29.88,SSW,203,0.0,0.0,94,0.00,,,0.00,WUHU216HW,2013-09-13 05:42:00,
2013-09-13 06:47:00,61.4,59.7,29.88,SSW,203,0.0,0.4,94,0.00,,,0.00,WUHU216HW,2013-09-13 05:47:00,
2013-09-13 06:52:00,61.4,59.9,29.88,SSW,203,0.0,0.4,95,0.00,,,0.00,WUHU216HW,2013-09-13 05:52:00,
2013-09-13 06:57:00,61.4,59.9,29.88,SSW,203,0.0,0.4,95,0.00,,,0.00,WUHU216HW,2013-09-13 05:57:00,
2013-09-13 07:02:00,61.4,59.9,29.88,SSW,203,0.0,0.4,95,0.00,,,0.00,WUHU216HW,2013-09-13 06:02:00,
2013-09-13 07:07:00,61.6,60.1,29.88,SSW,203,0.4,0.4,95,0.00,,,0.00,WUHU216HW,2013-09-13 06:07:00,
2013-09-13 07:12:00,61.6,60.1,29.88,SSW,203,1.1,1.1,95,0.00,,,0.00,WUHU216HW,2013-09-13 06:12:00,
2013-09-13 07:17:00,61.6,60.1,29.88,South,180,0.0,1.1,95,0.00,,,0.00,WUHU216HW,2013-09-13 06:17:00,
2013-09-13 07:22:00,61.6,60.1,29.89,South,180,0.0,1.1,95,0.00,,,0.00,WUHU216HW,2013-09-13 06:22:00,
2013-09-13 07:27:00,61.6,60.1,29.89,South,180,0.0,0.4,95,0.00,,,0.00,WUHU216HW,2013-09-13 06:27:00,
2013-09-13 07:32:00,61.6,60.1,29.89,SW,225,0.0,0.7,95,0.00,,,0.00,WUHU216HW,2013-09-13 06:32:00,
2013-09-13 07:37:00,61.6,60.1,29.89,SW,225,0.0,0.7,95,0.00,,,0.00,WUHU216HW,2013-09-13 06:37:00,
2013-09-13 07:42:00,61.7,60.3,29.89,South,180,0.4,1.3,95,0.00,,,0.00,WUHU216HW,2013-09-13 06:42:00,
2013-09-13 07:47:00,61.7,60.3,29.89,SSW,203,0.0,1.3,95,0.00,,,0.00,WUHU216HW,2013-09-13 06:47:00,
2013-09-13 07:52:00,61.9,60.5,29.89,SSW,203,0.4,1.1,95,0.00,,,0.00,WUHU216HW,2013-09-13 06:52:00,
2013-09-13 07:57:00,61.9,60.5,29.89,SSW,203,0.0,1.1,95,0.00,,,0.00,WUHU216HW,2013-09-13 06:57:00,
2013-09-13 08:02:00,61.9,60.5,29.89,SW,225,0.0,0.9,95,0.00,,,0.00,WUHU216HW,2013-09-13 07:02:00,
2013-09-13 08:07:00,61.9,60.5,29.89,SW,225,0.4,0.9,95,0.00,,,0.00,WUHU216HW,2013-09-13 07:07:00,
2013-09-13 08:12:00,61.9,60.5,29.89,SW,225,0.2,0.7,95,0.00,,,0.00,WUHU216HW,2013-09-13 07:12:00,
2013-09-13 08:17:00,61.9,60.5,29.89,SW,225,0.4,0.9,95,0.00,,,0.00,WUHU216HW,2013-09-13 07:17:00,
2013-09-13 08:22:00,62.3,60.8,29.89,SW,225,0.2,0.9,95,0.00,,,0.00,WUHU216HW,2013-09-13 07:22:00,
2013-09-13 08:27:00,62.5,61.0,29.89,SW,225,0.2,0.7,95,0.00,,,0.00,WUHU216HW,2013-09-13 07:27:00,
2013-09-13 08:32:00,62.6,61.2,29.89,SSW,203,0.4,1.3,95,0.00,,,0.00,WUHU216HW,2013-09-13 07:32:00,
2013-09-13 08:37:00,62.6,61.2,29.89,SW,225,0.4,1.3,95,0.00,,,0.00,WUHU216HW,2013-09-13 07:37:00,
2013-09-13 08:42:00,62.6,61.2,29.89,SSW,203,0.4,1.3,95,0.00,,,0.00,WUHU216HW,2013-09-13 07:42:00,
2013-09-13 08:47:00,62.8,61.4,29.90,SSW,203,0.4,1.1,95,0.00,,,0.00,WUHU216HW,2013-09-13 07:47:00,
2013-09-13 08:52:00,63.0,61.6,29.89,South,180,0.2,1.8,95,0.00,,,0.00,WUHU216HW,2013-09-13 07:52:00,
2013-09-13 08:57:00,63.0,61.6,29.90,South,180,1.1,2.5,95,0.00,,,0.00,WUHU216HW,2013-09-13 07:57:00,
2013-09-13 09:02:00,63.4,61.9,29.89,SSW,203,3.1,3.1,95,0.00,,,0.00,WUHU216HW,2013-09-13 08:02:00,
2013-09-13 09:07:00,63.2,61.7,29.90,SSW,203,1.1,3.1,95,0.00,,,0.00,WUHU216HW,2013-09-13 08:07:00,
2013-09-13 09:12:00,63.2,61.7,29.90,SSW,203,1.1,3.1,95,0.00,,,0.00,WUHU216HW,2013-09-13 08:12:00,
2013-09-13 09:17:00,63.2,61.7,29.90,SSW,203,1.1,1.1,95,0.00,,,0.00,WUHU216HW,2013-09-13 08:17:00,
2013-09-13 09:22:00,64.1,62.6,29.90,WSW,248,0.2,2.2,95,0.00,,,0.00,WUHU216HW,2013-09-13 08:22:00,
2013-09-13 09:27:00,64.1,62.6,29.89,SSW,203,0.2,2.2,95,0.00,,,0.00,WUHU216HW,2013-09-13 08:27:00,
2013-09-13 09:32:00,64.4,63.0,29.90,SSW,203,0.4,0.9,95,0.00,,,0.00,WUHU216HW,2013-09-13 08:32:00,
2013-09-13 09:37:00,64.4,62.7,29.90,SW,225,0.4,1.8,94,0.00,,,0.00,WUHU216HW,2013-09-13 08:37:00,
2013-09-13 09:42:00,64.3,62.6,29.90,South,180,0.0,1.8,94,0.00,,,0.00,WUHU216HW,2013-09-13 08:42:00,
2013-09-13 09:47:00,64.4,62.7,29.90,WSW,248,0.4,2.5,94,0.00,,,0.00,WUHU216HW,2013-09-13 08:47:00,
2013-09-13 09:52:00,64.4,62.5,29.90,WSW,248,0.4,2.5,93,0.00,,,0.00,WUHU216HW,2013-09-13 08:52:00,
2013-09-13 09:57:00,64.4,62.5,29.90,SSW,203,0.2,1.1,93,0.00,,,0.00,WUHU216HW,2013-09-13 08:57:00,
2013-09-13 10:02:00,64.8,62.7,29.90,WSW,248,0.2,1.1,93,0.00,,,0.00,WUHU216HW,2013-09-13 09:02:00,
2013-09-13 10:07:00,65.0,62.9,29.90,SW,225,0.4,1.1,93,0.00,,,0.00,WUHU216HW,2013-09-13 09:07:00,
2013-09-13 10:12:00,65.2,63.1,29.90,SW,225,0.4,1.1,93,0.00,,,0.00,WUHU216HW,2013-09-13 09:12:00,
2013-09-13 10:17:00,65.5,63.5,29.89,SW,225,0.2,1.6,93,0.00,,,0.00,WUHU216HW,2013-09-13 09:17:00,
2013-09-13 10:22:00,65.5,63.1,29.90,SSW,203,0.0,1.6,92,0.00,,,0.00,WUHU216HW,2013-09-13 09:22:00,
2013-09-13 10:27:00,65.5,62.8,29.90,SSW,203,0.0,1.3,91,0.00,,,0.00,WUHU216HW,2013-09-13 09:27:00,
2013-09-13 10:32:00,65.2,62.5,29.90,WSW,248,0.0,1.3,91,0.00,,,0.00,WUHU216HW,2013-09-13 09:32:00,
2013-09-13 10:37:00,65.2,62.5,29.90,SW,225,0.7,1.3,91,0.00,,,0.00,WUHU216HW,2013-09-13 09:37:00,
2013-09-13 10:42:00,65.2,62.5,29.90,SW,225,0.0,1.3,91,0.00,,,0.00,WUHU216HW,2013-09-13 09:42:00,
2013-09-13 10:47:00,65.3,62.6,29.90,WSW,248,0.4,0.9,91,0.00,,,0.00,WUHU216HW,2013-09-13 09:47:00,
2013-09-13 10:52:00,65.5,63.1,29.90,SSW,203,0.4,1.3,92,0.00,,,0.00,WUHU216HW,2013-09-13 09:52:00,
2013-09-13 10:57:00,65.7,63.0,29.90,NW,315,0.7,1.8,91,0.00,,,0.00,WUHU216HW,2013-09-13 09:57:00,
2013-09-13 11:02:00,66.1,63.4,29.90,NW,315,0.0,1.8,91,0.00,,,0.00,WUHU216HW,2013-09-13 10:02:00,
2013-09-13 11:07:00,66.2,63.5,29.90,NW,315,0.2,0.7,91,0.00,,,0.00,WUHU216HW,2013-09-13 10:07:00,
2013-09-13 11:12:00,66.2,63.2,29.90,NW,315,0.7,1.3,90,0.00,,,0.00,WUHU216HW,2013-09-13 10:12:00,
2013-09-13 11:17:00,66.2,62.8,29.90,WNW,293,0.4,1.6,89,0.00,,,0.00,WUHU216HW,2013-09-13 10:17:00,
2013-09-13 11:22:00,66.2,63.2,29.90,WNW,293,1.3,1.6,90,0.00,,,0.00,WUHU216HW,2013-09-13 10:22:00,
2013-09-13 11:27:00,66.4,63.4,29.90,WNW,293,0.4,2.0,90,0.00,,,0.00,WUHU216HW,2013-09-13 10:27:00,
2013-09-13 11:32:00,66.4,63.4,29.90,WNW,293,0.0,2.0,90,0.00,,,0.00,WUHU216HW,2013-09-13 10:32:00,
2013-09-13 11:37:00,66.2,62.8,29.90,West,270,0.4,1.3,89,0.00,,,0.00,WUHU216HW,2013-09-13 10:37:00,
2013-09-13 11:42:00,66.1,62.7,29.90,WNW,293,1.1,1.3,89,0.00,,,0.00,WUHU216HW,2013-09-13 10:42:00,
2013-09-13 11:47:00,65.9,62.8,29.90,NW,315,2.9,3.4,90,0.00,,,0.00,WUHU216HW,2013-09-13 10:47:00,
2013-09-13 11:52:00,65.9,63.2,29.90,NNW,338,0.4,3.4,91,0.00,,,0.00,WUHU216HW,2013-09-13 10:52:00,
2013-09-13 11:57:00,65.9,63.2,29.90,NW,315,1.8,3.1,91,0.00,,,0.00,WUHU216HW,2013-09-13 10:57:00,
2013-09-13 12:02:00,66.2,63.2,29.90,NW,315,0.4,3.1,90,0.00,,,0.00,WUHU216HW,2013-09-13 11:02:00,
2013-09-13 12:07:00,65.9,62.2,29.90,West,270,0.0,1.8,88,0.00,,,0.00,WUHU216HW,2013-09-13 11:07:00,
2013-09-13 12:12:00,65.7,62.4,29.90,West,270,0.4,1.1,89,0.00,,,0.00,WUHU216HW,2013-09-13 11:12:00,
2013-09-13 12:17:00,65.9,62.8,29.90,West,270,0.0,0.7,90,0.00,,,0.00,WUHU216HW,2013-09-13 11:17:00,
2013-09-13 12:22:00,66.2,63.2,29.90,WNW,293,0.7,1.3,90,0.00,,,0.00,WUHU216HW,2013-09-13 11:22:00,
2013-09-13 12:27:00,66.1,62.7,29.90,WNW,293,0.4,1.8,89,0.00,,,0.00,WUHU216HW,2013-09-13 11:27:00,
2013-09-13 12:32:00,66.1,62.7,29.90,WNW,293,1.8,2.2,89,0.00,,,0.00,WUHU216HW,2013-09-13 11:32:00,
2013-09-13 12:37:00,66.1,62.7,29.90,NW,315,1.8,2.9,89,0.00,,,0.00,WUHU216HW,2013-09-13 11:37:00,
2013-09-13 12:42:00,66.4,63.4,29.90,NW,315,2.5,2.9,90,0.00,,,0.00,WUHU216HW,2013-09-13 11:42:00,
2013-09-13 12:47:00,66.6,62.9,29.90,NNW,338,0.4,2.9,88,0.00,,,0.00,WUHU216HW,2013-09-13 11:47:00,
2013-09-13 12:52:00,66.6,62.9,29.90,NW,315,1.6,2.9,88,0.00,,,0.00,WUHU216HW,2013-09-13 11:52:00,
2013-09-13 12:57:00,66.6,62.6,29.90,NW,315,0.0,2.5,87,0.00,,,0.00,WUHU216HW,2013-09-13 11:57:00,
2013-09-13 13:02:00,66.4,62.7,29.91,WNW,293,0.4,2.5,88,0.00,,,0.00,WUHU216HW,2013-09-13 12:02:00,
2013-09-13 13:07:00,66.1,62.0,29.91,NW,315,0.4,2.2,87,0.00,,,0.00,WUHU216HW,2013-09-13 12:07:00,
2013-09-13 13:12:00,65.7,62.0,29.91,WNW,293,0.4,2.2,88,0.00,,,0.00,WUHU216HW,2013-09-13 12:12:00,
2013-09-13 13:17:00,65.5,61.8,29.91,WNW,293,0.0,2.5,88,0.00,,,0.00,WUHU216HW,2013-09-13 12:17:00,
2013-09-13 13:22:00,65.3,61.8,29.90,WNW,293,1.8,3.4,88,0.00,,,0.00,WUHU216HW,2013-09-13 12:22:00,
2013-09-13 13:27:00,65.3,62.0,29.90,NW,315,0.4,3.4,89,0.00,,,0.00,WUHU216HW,2013-09-13 12:27:00,
2013-09-13 13:32:00,65.0,61.4,29.90,NW,315,1.8,2.9,88,0.00,,,0.00,WUHU216HW,2013-09-13 12:32:00,
2013-09-13 13:37:00,64.4,61.2,29.90,NW,315,0.2,3.8,89,0.00,,,0.00,WUHU216HW,2013-09-13 12:37:00,
2013-09-13 13:42:00,64.6,61.4,29.90,WNW,293,0.4,3.8,89,0.00,,,0.00,WUHU216HW,2013-09-13 12:42:00,
2013-09-13 13:47:00,65.0,61.4,29.90,WNW,293,0.2,2.2,88,0.00,,,0.00,WUHU216HW,2013-09-13 12:47:00,
2013-09-13 13:52:00,65.2,61.2,29.90,NNW,338,0.4,2.2,87,0.00,,,0.00,WUHU216HW,2013-09-13 12:52:00,
2013-09-13 13:57:00,65.3,62.0,29.90,NW,315,1.3,2.7,89,0.00,,,0.00,WUHU216HW,2013-09-13 12:57:00,
2013-09-13 14:02:00,65.2,61.2,29.90,NW,315,1.6,4.3,87,0.00,,,0.00,WUHU216HW,2013-09-13 13:02:00,
2013-09-13 14:07:00,64.8,60.8,29.90,North,0,1.6,4.7,87,0.00,,,0.00,WUHU216HW,2013-09-13 13:07:00,
2013-09-13 14:12:00,64.6,60.4,29.90,NW,315,1.8,4.7,86,0.00,,,0.00,WUHU216HW,2013-09-13 13:12:00,
2013-09-13 14:17:00,64.3,60.0,29.90,West,270,1.1,4.3,86,0.00,,,0.00,WUHU216HW,2013-09-13 13:17:00,
2013-09-13 14:22:00,64.1,60.2,29.90,NW,315,0.2,3.4,87,0.00,,,0.00,WUHU216HW,2013-09-13 13:22:00,
2013-09-13 14:27:00,64.1,59.9,29.90,NW,315,1.6,3.4,86,0.00,,,0.00,WUHU216HW,2013-09-13 13:27:00,
2013-09-13 14:32:00,64.1,60.2,29.90,NW,315,2.0,3.1,87,0.00,,,0.00,WUHU216HW,2013-09-13 13:32:00,
2013-09-13 14:37:00,64.3,60.0,29.89,NW,315,1.8,3.1,86,0.00,,,0.00,WUHU216HW,2013-09-13 13:37:00,
2013-09-13 14:42:00,64.3,59.7,29.89,West,270,0.7,2.7,85,0.00,,,0.00,WUHU216HW,2013-09-13 13:42:00,
2013-09-13 14:47:00,64.1,59.5,29.89,NW,315,1.3,2.9,85,0.00,,,0.00,WUHU216HW,2013-09-13 13:47:00,
2013-09-13 14:52:00,63.9,59.7,29.89,WNW,293,0.4,2.9,86,0.00,,,0.00,WUHU216HW,2013-09-13 13:52:00,
2013-09-13 14:57:00,63.7,59.5,29.89,WNW,293,1.8,2.5,86,0.00,,,0.00,WUHU216HW,2013-09-13 13:57:00,
2013-09-13 15:02:00,63.5,59.7,29.89,NW,315,0.4,2.9,87,0.00,,,0.00,WUHU216HW,2013-09-13 14:02:00,
2013-09-13 15:06:00,63.5,59.3,29.90,NW,315,1.8,3.4,86,0.00,,,0.00,WUHU216HW,2013-09-13 14:06:00,
2013-09-13 15:11:00,63.4,59.1,29.89,NW,315,2.5,3.4,86,0.00,,,0.00,WUHU216HW,2013-09-13 14:11:00,
2013-09-13 15:17:00,63.2,59.0,29.89,WNW,293,2.2,3.4,86,0.00,,,0.00,WUHU216HW,2013-09-13 14:17:00,
2013-09-13 15:21:00,63.0,58.8,29.89,NW,315,2.0,3.4,86,0.00,,,0.00,WUHU216HW,2013-09-13 14:21:00,
2013-09-13 15:26:00,63.0,59.1,29.89,NNW,338,0.4,2.9,87,0.00,,,0.00,WUHU216HW,2013-09-13 14:26:00,
2013-09-13 15:31:00,63.0,59.1,29.89,NW,315,0.0,2.5,87,0.00,,,0.00,WUHU216HW,2013-09-13 14:31:00,
2013-09-13 15:36:00,62.6,59.0,29.89,NW,315,3.4,3.4,88,0.00,,,0.00,WUHU216HW,2013-09-13 14:36:00,
2013-09-13 15:41:00,62.5,59.2,29.89,NW,315,0.9,3.4,89,0.00,,,0.00,WUHU216HW,2013-09-13 14:41:00,
2013-09-13 15:46:00,62.3,59.4,29.89,NNW,338,2.9,3.4,90,0.00,,,0.00,WUHU216HW,2013-09-13 14:46:00,
2013-09-13 15:51:00,62.1,59.2,29.89,NW,315,0.9,2.9,90,0.00,,,0.00,WUHU216HW,2013-09-13 14:51:00,
2013-09-13 15:56:00,62.1,59.2,29.88,NW,315,1.1,2.9,90,0.00,,,0.00,WUHU216HW,2013-09-13 14:56:00,
2013-09-13 16:01:00,62.1,59.2,29.88,NW,315,0.0,2.0,90,0.00,,,0.00,WUHU216HW,2013-09-13 15:01:00,
2013-09-13 16:06:00,62.1,59.2,29.88,NW,315,0.2,1.1,90,0.00,,,0.00,WUHU216HW,2013-09-13 15:06:00,
2013-09-13 16:11:00,62.1,59.2,29.88,NW,315,0.0,0.4,90,0.00,,,0.00,WUHU216HW,2013-09-13 15:11:00,
2013-09-13 16:16:00,62.1,59.2,29.88,WNW,293,0.0,1.1,90,0.00,,,0.00,WUHU216HW,2013-09-13 15:16:00,
2013-09-13 16:21:00,61.9,59.0,29.88,WNW,293,0.0,1.1,90,0.00,,,0.00,WUHU216HW,2013-09-13 15:21:00,
2013-09-13 16:26:00,62.1,59.2,29.88,NW,315,0.9,1.1,90,0.00,,,0.00,WUHU216HW,2013-09-13 15:26:00,
2013-09-13 16:31:00,62.1,59.2,29.88,NW,315,0.0,1.1,90,0.00,,,0.00,WUHU216HW,2013-09-13 15:31:00,
2013-09-13 16:36:00,62.1,59.2,29.88,NW,315,0.2,0.9,90,0.00,,,0.00,WUHU216HW,2013-09-13 15:36:00,
2013-09-13 16:41:00,62.1,59.2,29.88,NW,315,0.0,0.9,90,0.00,,,0.00,WUHU216HW,2013-09-13 15:41:00,
2013-09-13 16:46:00,62.3,59.0,29.87,NW,315,0.0,0.9,89,0.00,,,0.00,WUHU216HW,2013-09-13 15:46:00,
2013-09-13 16:51:00,62.6,59.4,29.88,NW,315,0.0,0.2,89,0.00,,,0.00,WUHU216HW,2013-09-13 15:51:00,
2013-09-13 16:56:00,62.6,59.4,29.88,WNW,293,0.0,0.4,89,0.00,,,0.00,WUHU216HW,2013-09-13 15:56:00,
2013-09-13 17:01:00,62.6,59.4,29.87,WNW,293,0.0,0.4,89,0.00,,,0.00,WUHU216HW,2013-09-13 16:01:00,
2013-09-13 17:06:00,62.6,59.4,29.87,WNW,293,0.0,0.2,89,0.00,,,0.00,WUHU216HW,2013-09-13 16:06:00,
2013-09-13 17:11:00,62.6,59.4,29.87,WNW,293,0.0,0.0,89,0.00,,,0.00,WUHU216HW,2013-09-13 16:11:00,
2013-09-13 17:16:00,62.6,59.4,29.86,WNW,293,0.0,0.2,89,0.00,,,0.00,WUHU216HW,2013-09-13 16:16:00,
2013-09-13 17:21:00,62.6,59.0,29.86,WNW,293,0.0,0.2,88,0.00,,,0.00,WUHU216HW,2013-09-13 16:21:00,
2013-09-13 17:26:00,62.5,59.2,29.86,WNW,293,0.0,0.2,89,0.00,,,0.00,WUHU216HW,2013-09-13 16:26:00,
2013-09-13 17:31:00,62.3,59.0,29.86,WNW,293,0.0,0.4,89,0.00,,,0.00,WUHU216HW,2013-09-13 16:31:00,
2013-09-13 17:36:00,62.3,59.0,29.86,NNE,23,0.0,0.9,89,0.00,,,0.00,WUHU216HW,2013-09-13 16:36:00,
2013-09-13 17:41:00,62.1,58.9,29.86,NNE,23,0.4,0.9,89,0.00,,,0.00,WUHU216HW,2013-09-13 16:41:00,
2013-09-13 17:46:00,61.9,59.0,29.86,NNE,23,0.0,0.4,90,0.00,,,0.00,WUHU216HW,2013-09-13 16:46:00,
2013-09-13 17:51:00,61.9,59.0,29.85,NNE,23,0.0,0.7,90,0.00,,,0.00,WUHU216HW,2013-09-13 16:51:00,
2013-09-13 17:56:00,61.9,59.0,29.85,NNE,23,0.0,0.7,90,0.00,,,0.00,WUHU216HW,2013-09-13 16:56:00,
2013-09-13 18:01:00,61.9,59.0,29.85,NNE,23,0.4,0.4,90,0.00,,,0.00,WUHU216HW,2013-09-13 17:01:00,
2013-09-13 18:06:00,61.9,59.0,29.85,NNE,23,0.4,0.7,90,0.00,,,0.00,WUHU216HW,2013-09-13 17:06:00,
2013-09-13 18:11:00,61.9,59.0,29.85,ESE,113,0.2,1.3,90,0.00,,,0.00,WUHU216HW,2013-09-13 17:11:00,
2013-09-13 18:16:00,61.7,58.9,29.84,East,90,0.4,1.3,90,0.00,,,0.00,WUHU216HW,2013-09-13 17:16:00,
2013-09-13 18:21:00,61.7,58.9,29.84,East,90,0.0,0.9,90,0.00,,,0.00,WUHU216HW,2013-09-13 17:21:00,
2013-09-13 18:26:00,61.7,58.9,29.84,East,90,0.2,1.1,90,0.00,,,0.00,WUHU216HW,2013-09-13 17:26:00,
2013-09-13 18:31:00,61.7,58.9,29.84,ENE,68,0.0,1.1,90,0.00,,,0.00,WUHU216HW,2013-09-13 17:31:00,
2013-09-13 18:36:00,61.6,58.7,29.84,ENE,68,0.0,1.1,90,0.00,,,0.00,WUHU216HW,2013-09-13 17:36:00,
2013-09-13 18:41:00,61.6,58.7,29.84,ENE,68,0.4,0.4,90,0.00,,,0.00,WUHU216HW,2013-09-13 17:41:00,
2013-09-13 18:46:00,61.6,58.7,29.84,ENE,68,0.2,0.4,90,0.00,,,0.00,WUHU216HW,2013-09-13 17:46:00,
2013-09-13 18:51:00,61.6,59.0,29.84,ENE,68,0.4,0.4,91,0.00,,,0.00,WUHU216HW,2013-09-13 17:51:00,
2013-09-13 18:56:00,61.4,58.8,29.83,ENE,68,0.2,1.1,91,0.00,,,0.00,WUHU216HW,2013-09-13 17:56:00,
2013-09-13 19:01:00,61.4,59.0,29.83,ENE,68,0.7,2.5,92,0.00,,,0.00,WUHU216HW,2013-09-13 18:01:00,
2013-09-13 19:06:00,61.4,59.0,29.83,NE,45,0.4,2.5,92,0.00,,,0.00,WUHU216HW,2013-09-13 18:06:00,
2013-09-13 19:11:00,61.2,58.9,29.82,ENE,68,0.4,2.9,92,0.00,,,0.00,WUHU216HW,2013-09-13 18:11:00,
2013-09-13 19:16:00,61.2,59.2,29.82,ENE,68,1.1,2.9,93,0.00,,,0.00,WUHU216HW,2013-09-13 18:16:00,
2013-09-13 19:21:00,61.0,59.1,29.83,ENE,68,0.0,2.9,93,0.00,,,0.00,WUHU216HW,2013-09-13 18:21:00,
2013-09-13 19:26:00,61.0,59.1,29.83,ENE,68,0.2,2.9,93,0.00,,,0.00,WUHU216HW,2013-09-13 18:26:00,
2013-09-13 19:31:00,61.0,59.1,29.83,ENE,68,0.7,1.6,93,0.00,,,0.00,WUHU216HW,2013-09-13 18:31:00,
2013-09-13 19:36:00,61.0,59.1,29.82,ENE,68,0.4,2.5,93,0.00,,,0.00,WUHU216HW,2013-09-13 18:36:00,
2013-09-13 19:41:00,61.0,59.1,29.82,NE,45,2.5,2.5,93,0.00,,,0.00,WUHU216HW,2013-09-13 18:41:00,
2013-09-13 19:46:00,61.0,59.1,29.82,ENE,68,1.3,2.5,93,0.00,,,0.00,WUHU216HW,2013-09-13 18:46:00,
2013-09-13 19:51:00,61.0,59.1,29.82,ENE,68,0.4,2.5,93,0.00,,,0.00,WUHU216HW,2013-09-13 18:51:00,
2013-09-13 19:56:00,61.0,59.1,29.82,ENE,68,2.2,2.5,93,0.00,,,0.00,WUHU216HW,2013-09-13 18:56:00,
2013-09-13 20:01:00,60.8,58.9,29.82,ENE,68,0.4,2.5,93,0.00,,,0.00,WUHU216HW,2013-09-13 19:01:00,
2013-09-13 20:06:00,60.8,58.9,29.82,NNE,23,0.9,2.7,93,0.00,,,0.00,WUHU216HW,2013-09-13 19:06:00,
2013-09-13 20:11:00,60.7,58.7,29.81,ENE,68,1.6,4.5,93,0.00,,,0.00,WUHU216HW,2013-09-13 19:11:00,
2013-09-13 20:16:00,60.5,58.5,29.81,ENE,68,0.4,4.5,93,0.00,,,0.00,WUHU216HW,2013-09-13 19:16:00,
2013-09-13 20:21:00,60.3,58.3,29.81,ENE,68,0.7,4.0,93,0.00,,,0.00,WUHU216HW,2013-09-13 19:21:00,
2013-09-13 20:26:00,60.3,58.3,29.81,ENE,68,0.0,3.1,93,0.00,,,0.00,WUHU216HW,2013-09-13 19:26:00,
2013-09-13 20:31:00,60.3,58.6,29.81,East,90,0.2,2.0,94,0.00,,,0.00,WUHU216HW,2013-09-13 19:31:00,
2013-09-13 20:36:00,60.3,58.6,29.81,East,90,0.2,1.3,94,0.00,,,0.00,WUHU216HW,2013-09-13 19:36:00,
2013-09-13 20:41:00,60.3,58.6,29.80,East,90,0.2,1.3,94,0.00,,,0.00,WUHU216HW,2013-09-13 19:41:00,
2013-09-13 20:46:00,60.3,58.6,29.80,East,90,0.0,1.8,94,0.00,,,0.00,WUHU216HW,2013-09-13 19:46:00,
2013-09-13 20:51:00,60.1,58.4,29.80,East,90,0.2,1.8,94,0.00,,,0.00,WUHU216HW,2013-09-13 19:51:00,
2013-09-13 20:56:00,60.1,58.4,29.80,East,90,0.7,1.1,94,0.00,,,0.00,WUHU216HW,2013-09-13 19:56:00,
2013-09-13 21:01:00,60.1,58.4,29.79,East,90,0.2,1.1,94,0.00,,,0.00,WUHU216HW,2013-09-13 20:01:00,
2013-09-13 21:06:00,60.1,58.4,29.79,ENE,68,0.2,1.8,94,0.00,,,0.00,WUHU216HW,2013-09-13 20:06:00,
2013-09-13 21:11:00,60.1,58.4,29.79,ENE,68,0.2,1.8,94,0.00,,,0.00,WUHU216HW,2013-09-13 20:11:00,
2013-09-13 21:16:00,60.1,58.7,29.79,ENE,68,0.4,0.9,95,0.00,,,0.00,WUHU216HW,2013-09-13 20:16:00,
2013-09-13 21:21:00,60.1,58.7,29.78,ENE,68,1.1,2.0,95,0.00,,,0.00,WUHU216HW,2013-09-13 20:21:00,
2013-09-13 21:26:00,60.1,58.7,29.78,ENE,68,2.2,3.1,95,0.00,,,0.00,WUHU216HW,2013-09-13 20:26:00,
2013-09-13 21:31:00,60.1,58.7,29.77,NE,45,2.0,4.3,95,0.00,,,0.00,WUHU216HW,2013-09-13 20:31:00,
2013-09-13 21:36:00,59.8,58.3,29.77,NE,45,0.4,4.3,95,0.00,,,0.00,WUHU216HW,2013-09-13 20:36:00,
2013-09-13 21:41:00,59.8,58.3,29.77,NW,315,0.2,3.1,95,0.00,,,0.00,WUHU216HW,2013-09-13 20:41:00,
2013-09-13 21:46:00,59.8,58.3,29.76,ENE,68,2.5,2.5,95,0.00,,,0.00,WUHU216HW,2013-09-13 20:46:00,
2013-09-13 21:51:00,59.4,57.7,29.76,East,90,2.2,4.5,94,0.00,,,0.00,WUHU216HW,2013-09-13 20:51:00,
2013-09-13 21:56:00,59.4,57.7,29.76,NNE,23,1.6,4.5,94,0.00,,,0.00,WUHU216HW,2013-09-13 20:56:00,
2013-09-13 22:01:00,59.4,57.7,29.76,WSW,248,0.2,2.7,94,0.00,,,0.00,WUHU216HW,2013-09-13 21:01:00,
2013-09-13 22:06:00,59.4,57.7,29.76,WSW,248,0.2,1.8,94,0.00,,,0.00,WUHU216HW,2013-09-13 21:06:00,
2013-09-13 22:11:00,59.4,57.7,29.75,NE,45,2.2,4.5,94,0.00,,,0.00,WUHU216HW,2013-09-13 21:11:00,
2013-09-13 22:16:00,59.4,57.7,29.75,West,270,0.9,4.5,94,0.00,,,0.00,WUHU216HW,2013-09-13 21:16:00,
2013-09-13 22:21:00,59.4,58.0,29.75,ENE,68,2.5,3.8,95,0.00,,,0.00,WUHU216HW,2013-09-13 21:21:00,
2013-09-13 22:26:00,59.2,57.8,29.74,ENE,68,0.9,2.5,95,0.00,,,0.00,WUHU216HW,2013-09-13 21:26:00,
2013-09-13 22:31:00,59.0,57.6,29.74,WNW,293,1.1,2.5,95,0.00,,,0.00,WUHU216HW,2013-09-13 21:31:00,
2013-09-13 22:36:00,59.0,57.6,29.74,NW,315,0.4,1.8,95,0.00,,,0.00,WUHU216HW,2013-09-13 21:36:00,
2013-09-13 22:41:00,59.0,57.6,29.74,NW,315,0.2,2.5,95,0.00,,,0.00,WUHU216HW,2013-09-13 21:41:00,
2013-09-13 22:46:00,58.7,57.0,29.74,NW,315,0.7,2.5,94,0.00,,,0.00,WUHU216HW,2013-09-13 21:46:00,
2013-09-13 22:51:00,58.5,57.1,29.74,SSE,158,0.0,2.0,95,0.00,,,0.00,WUHU216HW,2013-09-13 21:51:00,
2013-09-13 22:56:00,58.5,57.1,29.73,WNW,293,0.4,0.9,95,0.00,,,0.00,WUHU216HW,2013-09-13 21:56:00,
2013-09-13 23:01:00,58.3,56.9,29.73,NW,315,0.4,2.0,95,0.00,,,0.00,WUHU216HW,2013-09-13 22:01:00,
2013-09-13 23:06:00,58.1,56.7,29.73,NW,315,0.9,2.7,95,0.00,,,0.00,WUHU216HW,2013-09-13 22:06:00,
2013-09-13 23:11:00,58.0,56.5,29.73,NW,315,1.8,2.7,95,0.00,,,0.00,WUHU216HW,2013-09-13 22:11:00,
2013-09-13 23:16:00,57.6,56.2,29.73,WNW,293,0.4,2.9,95,0.00,,,0.00,WUHU216HW,2013-09-13 22:16:00,
2013-09-13 23:21:00,57.2,55.5,29.73,East,90,0.4,2.9,94,0.00,,,0.00,WUHU216HW,2013-09-13 22:21:00,
2013-09-13 23:26:00,57.1,55.4,29.73,NNW,338,2.9,3.8,94,0.00,,,0.00,WUHU216HW,2013-09-13 22:26:00,
2013-09-13 23:31:00,56.7,55.0,29.73,NW,315,1.8,3.8,94,0.00,,,0.00,WUHU216HW,2013-09-13 22:31:00,
2013-09-13 23:36:00,56.2,54.5,29.73,WNW,293,2.7,6.3,94,0.00,,,0.00,WUHU216HW,2013-09-13 22:36:00,
2013-09-13 23:41:00,55.8,54.1,29.74,NW,315,0.7,6.3,94,0.00,,,0.00,WUHU216HW,2013-09-13 22:41:00,
2013-09-13 23:46:00,55.4,53.7,29.74,WNW,293,2.0,6.0,94,0.00,,,0.00,WUHU216HW,2013-09-13 22:46:00,
2013-09-13 23:51:00,55.1,53.4,29.74,North,0,4.7,6.0,94,0.00,,,0.00,WUHU216HW,2013-09-13 22:51:00,
2013-09-13 23:56:00,54.7,53.0,29.74,NW,315,4.0,4.7,94,0.00,,,0.00,WUHU216HW,2013-09-13 22:56:00,